createdAt,value
2018-12-05T00:00:44.761Z,75.72
2018-12-05T00:01:44.761Z,76.01
2018-12-05T00:02:44.755Z,76.01
2018-12-05T00:03:44.877Z,76.29
2018-12-05T00:04:44.769Z,76.29
2018-12-05T00:05:44.862Z,76.01
2018-12-05T00:06:44.785Z,75.91
2018-12-05T00:07:44.908Z,75.81
2018-12-05T00:08:44.818Z,75.81
2018-12-05T00:09:45.039Z,75.91
2018-12-05T00:10:44.864Z,75.34
2018-12-05T00:11:45.470Z,75.24
2018-12-05T00:12:44.873Z,76.10
2018-12-05T00:13:44.842Z,75.62
2018-12-05T00:14:45.021Z,76.10
2018-12-05T00:15:45.860Z,75.91
2018-12-05T00:16:44.855Z,76.01
2018-12-05T00:17:44.907Z,76.01
2018-12-05T00:18:45.830Z,76.01
2018-12-05T00:19:44.897Z,76.01
2018-12-05T00:20:44.904Z,75.24
2018-12-05T00:21:45.873Z,75.43
2018-12-05T00:22:44.941Z,75.34
2018-12-05T00:23:44.913Z,75.76
2018-12-05T00:24:45.112Z,75.43
2018-12-05T00:25:44.945Z,74.87
2018-12-05T00:26:45.416Z,75.24
2018-12-05T00:27:44.931Z,74.87
2018-12-05T00:28:45.181Z,75.00
2018-12-05T00:29:45.040Z,75.34
2018-12-05T00:30:44.885Z,75.38
2018-12-05T00:31:45.045Z,75.15
2018-12-05T00:32:44.905Z,75.00
2018-12-05T00:33:45.033Z,75.28
2018-12-05T00:34:45.024Z,75.24
2018-12-05T00:35:44.983Z,74.90
2018-12-05T00:36:44.910Z,75.19
2018-12-05T00:37:45.211Z,75.09
2018-12-05T00:38:44.894Z,75.34
2018-12-05T00:39:45.318Z,75.19
2018-12-05T00:40:45.139Z,75.81
2018-12-05T00:41:44.999Z,75.95
2018-12-05T00:42:45.026Z,76.01
2018-12-05T00:43:45.833Z,75.24
2018-12-05T00:44:45.083Z,75.24
2018-12-05T00:45:44.924Z,75.24
2018-12-05T00:46:44.954Z,76.20
2018-12-05T00:47:44.970Z,75.43
2018-12-05T00:48:44.960Z,75.05
2018-12-05T00:49:44.951Z,74.87
2018-12-05T00:50:44.925Z,74.96
2018-12-05T00:51:44.925Z,74.96
2018-12-05T00:52:45.287Z,74.87
2018-12-05T00:53:44.967Z,75.62
2018-12-05T00:54:45.962Z,75.53
2018-12-05T00:55:44.943Z,75.05
2018-12-05T00:56:45.979Z,75.15
2018-12-05T00:57:44.949Z,75.19
2018-12-05T00:58:45.005Z,75.05
2018-12-05T00:59:45.137Z,75.28
2018-12-05T01:00:44.968Z,75.00
2018-12-05T01:01:45.040Z,75.38
2018-12-05T01:02:45.032Z,75.15
2018-12-05T01:03:45.000Z,75.19
2018-12-05T01:04:45.012Z,75.00
2018-12-05T01:05:44.999Z,75.19
2018-12-05T01:06:45.188Z,75.28
2018-12-05T01:07:45.099Z,75.57
2018-12-05T01:08:45.100Z,75.00
2018-12-05T01:09:45.109Z,75.28
2018-12-05T01:10:45.009Z,75.19
2018-12-05T01:11:45.022Z,75.28
2018-12-05T01:12:45.032Z,75.53
2018-12-05T01:13:45.486Z,75.24
2018-12-05T01:14:45.182Z,75.09
2018-12-05T01:15:45.077Z,75.15
2018-12-05T01:16:45.454Z,74.77
2018-12-05T01:17:45.029Z,74.96
2018-12-05T01:18:45.476Z,75.05
2018-12-05T01:19:45.057Z,75.19
2018-12-05T01:20:45.094Z,75.34
2018-12-05T01:21:45.055Z,75.43
2018-12-05T01:22:45.092Z,75.24
2018-12-05T01:23:45.117Z,75.05
2018-12-05T01:24:45.084Z,75.05
2018-12-05T01:25:45.236Z,74.87
2018-12-05T01:26:45.132Z,75.15
2018-12-05T01:27:45.116Z,74.96
2018-12-05T01:28:45.098Z,74.87
2018-12-05T01:29:45.175Z,75.34
2018-12-05T01:30:45.125Z,75.24
2018-12-05T01:31:45.235Z,75.24
2018-12-05T01:32:45.203Z,75.15
2018-12-05T01:33:45.174Z,75.24
2018-12-05T01:34:45.899Z,75.05
2018-12-05T01:35:45.111Z,75.05
2018-12-05T01:36:46.352Z,75.15
2018-12-05T01:37:45.131Z,75.43
2018-12-05T01:38:45.176Z,75.15
2018-12-05T01:39:45.116Z,74.96
2018-12-05T01:40:45.174Z,74.96
2018-12-05T01:41:45.131Z,75.05
2018-12-05T01:42:45.185Z,75.09
2018-12-05T01:43:45.168Z,74.87
2018-12-05T01:44:45.359Z,75.05
2018-12-05T01:45:45.155Z,74.87
2018-12-05T01:46:45.150Z,75.19
2018-12-05T01:47:45.131Z,75.05
2018-12-05T01:48:45.173Z,74.77
2018-12-05T01:49:45.179Z,74.87
2018-12-05T01:50:45.223Z,75.05
2018-12-05T01:51:45.428Z,75.05
2018-12-05T01:52:45.171Z,74.96
2018-12-05T01:53:45.166Z,75.15
2018-12-05T01:54:45.206Z,75.15
2018-12-05T01:55:45.250Z,75.15
2018-12-05T01:56:45.180Z,75.05
2018-12-05T01:57:45.208Z,75.24
2018-12-05T01:58:45.185Z,75.15
2018-12-05T01:59:45.223Z,74.87
2018-12-05T02:00:45.206Z,75.24
2018-12-05T02:01:45.273Z,74.87
2018-12-05T02:02:45.272Z,74.87
2018-12-05T02:03:45.198Z,75.15
2018-12-05T02:04:45.232Z,74.81
2018-12-05T02:05:45.212Z,74.87
2018-12-05T02:06:45.269Z,74.87
2018-12-05T02:07:45.230Z,74.87
2018-12-05T02:08:45.334Z,75.05
2018-12-05T02:09:45.222Z,74.96
2018-12-05T02:10:45.249Z,74.87
2018-12-05T02:11:45.306Z,74.87
2018-12-05T02:12:45.305Z,75.24
2018-12-05T02:13:45.225Z,75.15
2018-12-05T02:14:45.247Z,75.05
2018-12-05T02:15:45.305Z,74.96
2018-12-05T02:16:45.281Z,74.87
2018-12-05T02:17:45.312Z,75.05
2018-12-05T05:53:40.650Z,79.57
2018-12-05T05:54:40.661Z,79.85
2018-12-05T05:55:40.640Z,80.43
2018-12-05T05:56:40.651Z,80.52
2018-12-05T05:57:40.689Z,80.43
2018-12-05T05:58:40.655Z,80.04
2018-12-05T05:59:40.656Z,80.33
2018-12-05T06:00:40.659Z,80.14
2018-12-05T06:01:40.680Z,80.24
2018-12-05T06:02:40.664Z,80.43
2018-12-05T06:03:40.733Z,80.90
2018-12-05T06:04:40.677Z,80.24
2018-12-05T06:05:40.661Z,80.71
2018-12-05T06:06:40.718Z,80.33
2018-12-05T06:07:40.690Z,80.33
2018-12-05T06:08:40.721Z,80.71
2018-12-05T06:09:40.736Z,80.71
2018-12-05T06:10:40.691Z,80.80
2018-12-05T06:11:40.672Z,80.71
2018-12-05T06:12:40.676Z,80.52
2018-12-05T06:13:40.694Z,80.90
2018-12-05T06:14:40.986Z,80.90
2018-12-05T06:15:40.769Z,80.80
2018-12-05T06:16:40.722Z,80.33
2018-12-05T06:17:40.913Z,80.43
2018-12-05T06:18:40.717Z,80.33
2018-12-05T06:19:40.723Z,80.43
2018-12-05T06:20:40.723Z,80.04
2018-12-05T06:21:40.747Z,79.66
2018-12-05T06:22:40.749Z,80.04
2018-12-05T06:23:40.749Z,79.95
2018-12-05T06:24:40.722Z,80.14
2018-12-05T06:25:40.730Z,80.04
2018-12-05T06:26:40.739Z,79.85
2018-12-05T06:27:40.795Z,79.95
2018-12-05T06:28:40.990Z,79.95
2018-12-05T06:29:40.801Z,80.04
2018-12-05T06:30:40.743Z,80.04
2018-12-05T06:31:40.750Z,79.85
2018-12-05T06:32:40.754Z,79.28
2018-12-05T06:33:40.811Z,79.57
2018-12-05T06:34:40.761Z,79.47
2018-12-05T06:35:40.791Z,79.57
2018-12-05T06:36:40.999Z,79.19
2018-12-05T06:37:40.989Z,79.66
2018-12-05T06:38:40.766Z,79.19
2018-12-05T06:39:40.917Z,79.66
2018-12-05T06:40:41.013Z,79.95
2018-12-05T06:41:40.785Z,80.04
2018-12-05T06:42:40.806Z,79.85
2018-12-05T06:43:40.830Z,79.38
2018-12-05T06:44:40.830Z,79.47
2018-12-05T06:45:40.807Z,79.95
2018-12-05T06:46:40.854Z,80.24
2018-12-05T06:47:40.812Z,80.04
2018-12-05T06:48:40.831Z,80.04
2018-12-05T06:49:40.811Z,80.14
2018-12-05T06:50:40.888Z,80.04
2018-12-05T06:51:40.999Z,79.57
2018-12-05T06:52:40.814Z,79.57
2018-12-05T06:53:40.833Z,79.10
2018-12-05T06:54:40.909Z,79.33
2018-12-05T06:55:40.919Z,79.42
2018-12-05T06:56:40.897Z,79.57
2018-12-05T06:57:40.851Z,79.80
2018-12-05T06:58:40.938Z,79.42
2018-12-05T06:59:40.862Z,79.42
2018-12-05T07:00:40.854Z,79.14
2018-12-05T07:01:40.947Z,79.23
2018-12-05T07:02:40.960Z,79.42
2018-12-05T07:03:41.227Z,79.52
2018-12-05T07:04:40.908Z,79.61
2018-12-05T07:05:40.914Z,79.23
2018-12-05T07:06:40.885Z,79.52
2018-12-05T07:07:40.939Z,79.33
2018-12-05T07:08:40.869Z,79.42
2018-12-05T07:09:40.900Z,79.52
2018-12-05T07:10:40.924Z,79.14
2018-12-05T07:11:40.932Z,79.52
2018-12-05T07:12:40.924Z,79.04
2018-12-05T07:13:40.878Z,79.04
2018-12-05T07:14:40.913Z,79.14
2018-12-05T07:15:40.897Z,79.42
2018-12-05T07:16:40.915Z,79.42
2018-12-05T07:17:40.955Z,79.33
2018-12-05T07:18:40.936Z,79.04
2018-12-05T07:19:41.002Z,79.42
2018-12-05T07:20:40.928Z,79.23
2018-12-05T07:21:40.938Z,79.80
2018-12-05T07:22:40.969Z,79.14
2018-12-05T07:23:41.027Z,79.33
2018-12-05T07:24:40.934Z,79.14
2018-12-05T07:25:40.953Z,79.33
2018-12-05T07:26:40.937Z,79.52
2018-12-05T07:27:40.954Z,79.04
2018-12-05T07:28:40.993Z,79.61
2018-12-05T07:29:41.002Z,78.56
2018-12-05T07:30:41.038Z,78.38
2018-12-05T07:31:40.995Z,78.66
2018-12-05T07:32:40.989Z,78.66
2018-12-05T07:33:40.982Z,78.56
2018-12-05T07:34:41.027Z,78.66
2018-12-05T07:35:40.982Z,78.47
2018-12-05T07:36:40.983Z,78.38
2018-12-05T07:37:40.984Z,78.38
2018-12-05T07:38:40.997Z,78.28
2018-12-05T07:39:41.159Z,78.19
2018-12-05T07:40:41.016Z,78.38
2018-12-05T07:41:41.020Z,78.19
2018-12-05T07:42:41.026Z,78.19
2018-12-05T07:43:41.029Z,78.19
2018-12-05T07:44:41.044Z,78.19
2018-12-05T07:45:41.059Z,78.00
2018-12-05T07:46:41.043Z,78.19
2018-12-05T07:47:40.998Z,78.38
2018-12-05T07:48:41.018Z,78.09
2018-12-05T07:49:41.017Z,78.00
2018-12-05T07:50:41.079Z,78.47
2018-12-05T07:51:41.033Z,78.38
2018-12-05T07:52:41.024Z,78.19
2018-12-05T07:53:41.051Z,78.85
2018-12-05T07:54:41.055Z,78.38
2018-12-05T07:55:41.082Z,78.47
2018-12-05T07:56:41.049Z,78.47
2018-12-05T07:57:41.061Z,78.09
2018-12-05T07:58:41.073Z,78.00
2018-12-05T07:59:41.066Z,78.09
2018-12-05T08:00:41.131Z,78.09
2018-12-05T08:01:41.095Z,78.00
2018-12-05T08:02:41.072Z,78.19
2018-12-05T08:03:41.080Z,78.00
2018-12-05T08:04:41.079Z,78.47
2018-12-05T08:05:41.081Z,77.71
2018-12-05T08:06:41.142Z,77.90
2018-12-05T08:07:41.109Z,77.43
2018-12-05T08:08:41.106Z,77.43
2018-12-05T08:09:41.107Z,77.43
2018-12-05T08:10:41.102Z,77.43
2018-12-05T08:11:41.155Z,77.33
2018-12-05T08:12:41.156Z,77.52
2018-12-05T08:13:41.099Z,77.62
2018-12-05T08:14:41.107Z,78.19
2018-12-05T08:15:41.174Z,78.19
2018-12-05T08:16:41.114Z,77.90
2018-12-05T08:17:41.167Z,78.19
2018-12-05T08:18:41.150Z,76.95
2018-12-05T08:19:41.123Z,77.33
2018-12-05T08:20:41.195Z,77.43
2018-12-05T08:21:41.152Z,77.43
2018-12-05T08:22:41.174Z,77.62
2018-12-05T08:23:41.153Z,77.47
2018-12-05T08:24:41.170Z,77.37
2018-12-05T08:25:41.182Z,77.47
2018-12-05T08:26:41.150Z,77.28
2018-12-05T08:27:41.184Z,77.28
2018-12-05T08:28:41.237Z,77.33
2018-12-05T08:29:41.164Z,77.18
2018-12-05T08:30:41.161Z,77.43
2018-12-05T08:31:41.196Z,77.47
2018-12-05T08:32:41.198Z,77.33
2018-12-05T08:33:41.230Z,77.47
2018-12-05T08:34:41.207Z,77.47
2018-12-05T08:35:41.179Z,77.28
2018-12-05T08:36:41.188Z,77.47
2018-12-05T08:37:41.180Z,77.47
2018-12-05T08:38:41.223Z,77.37
2018-12-05T08:39:41.324Z,76.71
2018-12-05T08:40:41.254Z,76.90
2018-12-05T08:41:41.210Z,77.37
2018-12-05T08:42:41.226Z,77.28
2018-12-05T08:43:41.296Z,76.71
2018-12-05T08:44:41.222Z,76.80
2018-12-05T08:45:41.278Z,76.80
2018-12-05T08:46:41.273Z,76.52
2018-12-05T08:47:41.241Z,76.90
2018-12-05T08:48:41.291Z,76.71
2018-12-05T08:49:41.236Z,76.61
2018-12-05T08:50:41.234Z,76.71
2018-12-05T08:51:41.322Z,76.61
2018-12-05T08:52:41.298Z,76.71
2018-12-05T08:53:41.272Z,76.61
2018-12-05T08:54:41.266Z,76.80
2018-12-05T08:55:41.258Z,76.42
2018-12-05T08:56:41.263Z,76.52
2018-12-05T08:57:41.258Z,76.80
2018-12-05T08:58:41.335Z,76.71
2018-12-05T08:59:41.288Z,76.61
2018-12-05T09:00:41.295Z,76.71
2018-12-05T09:01:41.278Z,76.80
2018-12-05T09:02:41.878Z,76.80
2018-12-05T09:03:41.274Z,76.52
2018-12-05T09:04:41.381Z,76.90
2018-12-05T09:05:41.284Z,76.52
2018-12-05T09:06:41.291Z,76.52
2018-12-05T09:07:41.384Z,76.52
2018-12-05T09:08:41.380Z,76.42
2018-12-05T09:09:41.388Z,76.71
2018-12-05T09:10:41.321Z,76.52
2018-12-05T09:11:41.349Z,76.71
2018-12-05T09:12:41.332Z,76.71
2018-12-05T09:13:41.360Z,76.52
2018-12-05T09:14:41.375Z,76.71
2018-12-05T09:15:41.371Z,76.90
2018-12-05T09:16:41.352Z,77.18
2018-12-05T09:17:41.339Z,76.71
2018-12-05T09:18:41.372Z,77.09
2018-12-05T09:19:41.365Z,76.90
2018-12-05T09:20:41.556Z,76.90
2018-12-05T09:21:41.380Z,76.99
2018-12-05T09:22:41.800Z,76.61
2018-12-05T09:23:41.375Z,76.32
2018-12-05T09:24:41.387Z,76.71
2018-12-05T09:25:41.390Z,77.18
2018-12-05T09:26:41.497Z,76.71
2018-12-05T09:27:41.364Z,76.90
2018-12-05T09:28:41.392Z,76.99
2018-12-05T09:29:41.402Z,77.09
2018-12-05T09:30:41.379Z,77.18
2018-12-05T09:31:41.387Z,77.09
2018-12-05T09:32:41.447Z,76.61
2018-12-05T09:33:41.415Z,76.42
2018-12-05T09:34:41.422Z,76.90
2018-12-05T09:35:41.412Z,76.90
2018-12-05T09:36:41.414Z,76.71
2018-12-05T09:37:41.429Z,76.42
2018-12-05T09:38:41.414Z,76.90
2018-12-05T09:39:41.477Z,76.52
2018-12-05T09:40:41.443Z,76.71
2018-12-05T09:41:41.458Z,76.71
2018-12-05T09:42:41.532Z,76.61
2018-12-05T09:43:41.468Z,76.52
2018-12-05T09:44:41.515Z,76.04
2018-12-05T09:45:41.540Z,76.23
2018-12-05T09:46:41.475Z,76.52
2018-12-05T09:47:41.464Z,76.27
2018-12-05T09:48:41.560Z,76.23
2018-12-05T09:49:41.563Z,76.37
2018-12-05T09:50:41.469Z,76.18
2018-12-05T09:51:41.479Z,76.42
2018-12-05T09:52:41.471Z,76.56
2018-12-05T09:53:41.547Z,76.56
2018-12-05T09:54:42.377Z,76.37
2018-12-05T09:55:41.495Z,76.14
2018-12-05T09:56:41.506Z,76.18
2018-12-05T09:57:41.501Z,76.18
2018-12-05T09:58:41.488Z,75.99
2018-12-05T09:59:42.072Z,76.08
2018-12-05T10:00:41.544Z,75.70
2018-12-05T10:01:41.544Z,75.60
2018-12-05T10:02:41.508Z,76.27
2018-12-05T10:03:41.522Z,76.37
2018-12-05T10:04:41.674Z,76.08
2018-12-05T10:05:41.565Z,76.08
2018-12-05T10:06:41.525Z,75.23
2018-12-05T10:07:41.567Z,75.04
2018-12-05T10:08:41.585Z,75.32
2018-12-05T10:09:43.267Z,74.94
2018-12-05T10:10:41.551Z,75.13
2018-12-05T10:11:41.586Z,75.42
2018-12-05T10:12:41.563Z,75.13
2018-12-05T10:13:41.563Z,75.13
2018-12-05T10:14:41.675Z,74.94
2018-12-05T10:15:41.649Z,74.56
2018-12-05T10:16:41.678Z,74.75
2018-12-05T10:17:42.834Z,74.75
2018-12-05T10:18:41.605Z,74.94
2018-12-05T10:19:41.606Z,75.51
2018-12-05T10:20:41.610Z,75.51
2018-12-05T10:21:41.687Z,74.75
2018-12-05T10:22:41.606Z,74.47
2018-12-05T10:23:41.595Z,74.37
2018-12-05T10:24:41.601Z,74.37
2018-12-05T10:25:41.709Z,74.47
2018-12-05T10:26:41.610Z,73.90
2018-12-05T10:27:41.616Z,74.66
2018-12-05T10:28:41.873Z,74.47
2018-12-05T10:29:41.638Z,74.37
2018-12-05T10:30:41.634Z,73.80
2018-12-05T10:31:44.204Z,74.08
2018-12-05T10:32:41.661Z,73.90
2018-12-05T10:33:41.663Z,74.03
2018-12-05T10:34:41.685Z,73.99
2018-12-05T10:35:41.673Z,74.18
2018-12-05T10:36:41.685Z,73.99
2018-12-05T10:37:41.712Z,74.08
2018-12-05T10:38:41.669Z,74.22
2018-12-05T10:39:41.816Z,73.55
2018-12-05T10:40:41.752Z,73.93
2018-12-05T10:41:41.709Z,73.55
2018-12-05T10:42:41.734Z,73.55
2018-12-05T10:43:41.761Z,74.03
2018-12-05T10:44:41.726Z,73.55
2018-12-05T10:45:41.713Z,73.36
2018-12-05T10:46:41.736Z,73.18
2018-12-05T10:47:41.690Z,73.27
2018-12-05T10:48:41.797Z,73.55
2018-12-05T10:49:41.721Z,73.36
2018-12-05T10:50:41.706Z,73.36
2018-12-05T10:51:41.719Z,72.99
2018-12-05T10:52:41.725Z,73.18
2018-12-05T10:53:41.735Z,73.27
2018-12-05T10:54:42.049Z,73.65
2018-12-05T10:55:41.744Z,73.08
2018-12-05T10:56:41.750Z,73.18
2018-12-05T10:57:41.776Z,72.99
2018-12-05T10:58:41.783Z,73.55
2018-12-05T10:59:41.781Z,73.46
2018-12-05T11:00:41.791Z,73.36
2018-12-05T11:01:41.784Z,73.36
2018-12-05T11:02:41.862Z,73.27
2018-12-05T11:03:41.796Z,73.27
2018-12-05T11:04:41.825Z,73.55
2018-12-05T11:05:41.822Z,73.18
2018-12-05T11:06:41.789Z,72.99
2018-12-05T11:07:41.825Z,72.60
2018-12-05T11:08:41.790Z,73.18
2018-12-05T11:09:41.824Z,73.65
2018-12-05T11:10:41.800Z,73.65
2018-12-05T11:11:41.807Z,73.27
2018-12-05T11:12:41.803Z,72.89
2018-12-05T11:13:41.809Z,73.18
2018-12-05T11:14:41.835Z,73.46
2018-12-05T11:15:41.923Z,72.99
2018-12-05T11:16:41.843Z,72.89
2018-12-05T11:17:41.865Z,72.89
2018-12-05T11:18:41.855Z,72.89
2018-12-05T11:19:41.847Z,73.08
2018-12-05T11:20:41.926Z,72.89
2018-12-05T11:21:41.873Z,73.18
2018-12-05T11:22:41.961Z,72.60
2018-12-05T11:23:41.947Z,72.60
2018-12-05T11:24:41.915Z,72.99
2018-12-05T11:25:42.078Z,72.79
2018-12-05T11:26:41.912Z,72.60
2018-12-05T11:27:41.896Z,72.51
2018-12-05T11:28:42.157Z,72.13
2018-12-05T11:29:42.665Z,72.41
2018-12-05T11:30:41.917Z,72.41
2018-12-05T11:31:41.894Z,72.32
2018-12-05T11:32:42.182Z,72.41
2018-12-05T11:33:41.966Z,72.07
2018-12-05T11:34:41.933Z,72.60
2018-12-05T11:35:41.965Z,71.84
2018-12-05T11:36:41.994Z,71.46
2018-12-05T11:37:41.978Z,71.94
2018-12-05T11:38:41.914Z,71.84
2018-12-05T11:39:41.941Z,71.94
2018-12-05T11:40:41.977Z,72.32
2018-12-05T11:41:41.954Z,72.16
2018-12-05T11:42:41.999Z,72.22
2018-12-05T11:43:42.015Z,71.94
2018-12-05T11:44:42.013Z,71.94
2018-12-05T11:45:41.977Z,71.66
2018-12-05T11:46:42.888Z,71.56
2018-12-05T11:47:42.047Z,71.75
2018-12-05T11:48:42.064Z,71.84
2018-12-05T11:49:41.997Z,72.32
2018-12-05T11:50:42.056Z,71.56
2018-12-05T11:51:41.985Z,71.75
2018-12-05T11:52:42.088Z,71.56
2018-12-05T11:53:42.061Z,71.75
2018-12-05T11:54:42.024Z,71.94
2018-12-05T11:55:42.004Z,70.99
2018-12-05T11:56:42.002Z,71.59
2018-12-05T11:57:42.054Z,71.31
2018-12-05T11:58:42.030Z,71.18
2018-12-05T11:59:42.050Z,71.59
2018-12-05T12:00:42.150Z,71.59
2018-12-05T12:01:42.033Z,71.50
2018-12-05T12:02:42.059Z,71.12
2018-12-05T12:03:42.034Z,71.12
2018-12-05T12:04:42.068Z,71.41
2018-12-05T12:05:42.057Z,71.02
2018-12-05T12:06:42.064Z,71.02
2018-12-05T12:07:42.072Z,71.02
2018-12-05T12:08:42.080Z,70.74
2018-12-05T12:09:42.089Z,71.12
2018-12-05T12:10:42.092Z,71.12
2018-12-05T12:11:42.097Z,70.26
2018-12-05T12:12:42.095Z,70.54
2018-12-05T12:13:42.109Z,70.64
2018-12-05T12:14:42.116Z,70.45
2018-12-05T12:15:42.121Z,70.36
2018-12-05T12:16:42.091Z,70.26
2018-12-05T12:17:42.139Z,69.88
2018-12-05T12:18:42.163Z,69.69
2018-12-05T12:19:42.105Z,70.17
2018-12-05T12:20:42.164Z,70.07
2018-12-05T12:21:42.156Z,69.88
2018-12-05T12:22:42.105Z,69.31
2018-12-05T12:23:42.122Z,69.41
2018-12-05T12:24:42.144Z,69.12
2018-12-05T12:25:42.200Z,69.21
2018-12-05T12:26:42.148Z,69.98
2018-12-05T12:27:42.153Z,69.02
2018-12-05T12:28:42.419Z,69.31
2018-12-05T12:29:42.162Z,69.41
2018-12-05T12:30:42.227Z,69.02
2018-12-05T12:31:42.163Z,68.74
2018-12-05T12:32:42.179Z,68.46
2018-12-05T12:33:42.218Z,68.07
2018-12-05T12:34:42.224Z,68.07
2018-12-05T12:35:42.255Z,68.36
2018-12-05T12:36:42.269Z,68.46
2018-12-05T12:37:42.177Z,68.17
2018-12-05T12:38:42.215Z,68.07
2018-12-05T12:39:42.243Z,67.98
2018-12-05T12:40:42.212Z,68.07
2018-12-05T12:41:42.221Z,68.07
2018-12-05T12:42:42.303Z,68.46
2018-12-05T12:43:42.208Z,67.32
2018-12-05T12:44:42.218Z,67.79
2018-12-05T12:45:42.230Z,67.50
2018-12-05T12:46:42.272Z,67.50
2018-12-05T12:47:42.327Z,67.32
2018-12-05T12:48:42.254Z,66.84
2018-12-05T12:49:42.261Z,67.22
2018-12-05T12:50:42.266Z,67.03
2018-12-05T12:51:42.275Z,67.03
2018-12-05T12:52:42.247Z,67.32
2018-12-05T12:53:42.312Z,66.84
2018-12-05T12:54:42.260Z,66.84
2018-12-05T12:55:42.270Z,67.03
2018-12-05T12:56:42.345Z,66.74
2018-12-05T12:57:42.299Z,66.65
2018-12-05T12:58:42.357Z,67.03
2018-12-05T12:59:42.299Z,66.94
2018-12-05T13:00:42.286Z,66.74
2018-12-05T13:01:42.318Z,66.94
2018-12-05T13:02:42.311Z,67.32
2018-12-05T13:03:42.302Z,66.55
2018-12-05T13:04:42.375Z,67.22
2018-12-05T13:05:42.320Z,66.94
2018-12-05T13:06:42.309Z,66.94
2018-12-05T13:07:42.328Z,66.36
2018-12-05T13:08:42.374Z,67.13
2018-12-05T13:09:42.356Z,67.13
2018-12-05T13:10:42.345Z,66.74
2018-12-05T13:11:42.405Z,66.84
2018-12-05T13:12:42.375Z,67.13
2018-12-05T13:13:42.348Z,67.13
2018-12-05T13:14:42.366Z,67.22
2018-12-05T13:15:42.360Z,67.41
2018-12-05T13:16:42.364Z,67.50
2018-12-05T13:17:42.388Z,67.50
2018-12-05T13:18:42.562Z,67.50
2018-12-05T13:19:42.395Z,67.41
2018-12-05T13:20:42.394Z,68.07
2018-12-05T13:21:42.390Z,67.88
2018-12-05T13:22:42.499Z,67.79
2018-12-05T13:23:42.416Z,68.07
2018-12-05T13:24:42.456Z,67.41
2018-12-05T13:25:42.489Z,67.50
2018-12-05T13:26:42.434Z,67.79
2018-12-05T13:27:42.412Z,67.88
2018-12-05T13:28:42.424Z,67.60
2018-12-05T13:29:42.414Z,67.50
2018-12-05T13:30:42.426Z,67.50
2018-12-05T13:31:42.548Z,67.50
2018-12-05T13:32:42.429Z,67.69
2018-12-05T13:33:42.434Z,67.69
2018-12-05T13:34:42.467Z,67.32
2018-12-05T13:35:42.456Z,67.79
2018-12-05T13:36:42.642Z,67.41
2018-12-05T13:37:42.546Z,67.50
2018-12-05T13:38:42.463Z,67.41
2018-12-05T13:39:42.516Z,67.41
2018-12-05T13:40:42.514Z,67.32
2018-12-05T13:41:42.505Z,66.84
2018-12-05T13:42:42.594Z,67.32
2018-12-05T13:43:42.524Z,66.94
2018-12-05T13:44:42.567Z,67.32
2018-12-05T13:45:42.535Z,67.22
2018-12-05T13:46:42.553Z,67.13
2018-12-05T13:47:42.542Z,66.94
2018-12-05T13:48:42.592Z,66.74
2018-12-05T13:49:42.538Z,67.13
2018-12-05T13:50:42.588Z,66.84
2018-12-05T13:51:42.548Z,66.84
2018-12-05T13:52:42.523Z,67.13
2018-12-05T13:53:42.564Z,67.22
2018-12-05T13:54:42.569Z,67.41
2018-12-05T13:55:42.525Z,67.13
2018-12-05T13:56:42.529Z,67.03
2018-12-05T13:57:42.597Z,67.03
2018-12-05T13:58:42.550Z,67.09
2018-12-05T13:59:42.550Z,67.32
2018-12-05T14:00:42.649Z,67.60
2018-12-05T14:01:42.571Z,67.47
2018-12-05T14:02:42.569Z,67.28
2018-12-05T14:03:42.578Z,67.57
2018-12-05T14:04:42.696Z,67.60
2018-12-05T14:05:42.592Z,67.66
2018-12-05T14:06:42.674Z,67.66
2018-12-05T14:07:42.678Z,67.57
2018-12-05T14:08:42.633Z,67.47
2018-12-05T14:09:42.611Z,67.79
2018-12-05T14:10:42.663Z,67.69
2018-12-05T14:11:42.695Z,67.94
2018-12-05T14:12:42.644Z,67.88
2018-12-05T14:13:42.752Z,67.57
2018-12-05T14:14:42.645Z,68.13
2018-12-05T14:15:42.641Z,68.23
2018-12-05T14:16:43.485Z,68.13
2018-12-05T14:17:42.662Z,68.04
2018-12-05T14:18:42.677Z,68.04
2018-12-05T14:19:42.647Z,68.13
2018-12-05T14:20:42.679Z,67.94
2018-12-05T14:21:42.654Z,67.85
2018-12-05T14:22:42.668Z,68.42
2018-12-05T14:23:42.712Z,68.33
2018-12-05T14:24:42.688Z,68.04
2018-12-05T14:25:42.761Z,67.94
2018-12-05T14:26:42.719Z,67.76
2018-12-05T14:27:42.728Z,67.85
2018-12-05T14:28:42.939Z,67.94
2018-12-05T14:29:42.745Z,68.42
2018-12-05T14:30:42.699Z,68.13
2018-12-05T14:31:42.760Z,67.94
2018-12-05T14:32:42.893Z,68.04
2018-12-05T14:33:42.722Z,68.04
2018-12-05T14:34:42.775Z,68.42
2018-12-05T14:35:42.704Z,68.23
2018-12-05T14:36:42.735Z,68.13
2018-12-05T14:37:42.859Z,68.42
2018-12-05T14:38:42.750Z,68.04
2018-12-05T14:39:42.759Z,68.04
2018-12-05T14:40:42.740Z,68.13
2018-12-05T14:41:42.737Z,68.23
2018-12-05T14:42:42.782Z,68.33
2018-12-05T14:43:42.802Z,68.23
2018-12-05T14:44:42.750Z,68.33
2018-12-05T14:45:42.821Z,68.33
2018-12-05T14:46:42.778Z,68.33
2018-12-05T14:47:42.767Z,68.42
2018-12-05T14:48:42.752Z,68.04
2018-12-05T14:49:42.793Z,67.94
2018-12-05T14:50:42.795Z,68.23
2018-12-05T14:51:42.805Z,68.13
2018-12-05T14:52:42.809Z,68.71
2018-12-05T14:53:42.789Z,68.52
2018-12-05T14:54:42.798Z,68.71
2018-12-05T14:55:42.822Z,68.90
2018-12-05T14:56:42.830Z,69.37
2018-12-05T14:57:42.802Z,69.46
2018-12-05T14:58:42.814Z,69.46
2018-12-05T14:59:42.854Z,69.27
2018-12-05T15:00:42.808Z,68.86
2018-12-05T15:01:42.832Z,69.62
2018-12-05T15:02:42.864Z,69.34
2018-12-05T15:03:42.846Z,69.09
2018-12-05T15:04:42.912Z,68.96
2018-12-05T15:05:42.843Z,69.15
2018-12-05T15:06:42.841Z,68.96
2018-12-05T15:07:42.837Z,69.15
2018-12-05T15:08:42.999Z,69.05
2018-12-05T15:09:42.852Z,69.05
2018-12-05T15:10:42.919Z,69.15
2018-12-05T15:11:42.875Z,69.43
2018-12-05T15:12:42.896Z,69.53
2018-12-05T15:13:42.920Z,69.53
2018-12-05T15:14:42.886Z,69.43
2018-12-05T15:15:42.944Z,69.34
2018-12-05T15:16:42.879Z,69.24
2018-12-05T15:17:43.058Z,69.24
2018-12-05T15:18:42.983Z,69.24
2018-12-05T15:19:42.891Z,69.81
2018-12-05T15:20:42.928Z,69.81
2018-12-05T15:21:42.926Z,69.91
2018-12-05T15:22:42.901Z,69.81
2018-12-05T15:23:42.967Z,70.00
2018-12-05T15:24:42.945Z,69.81
2018-12-05T15:25:42.924Z,69.71
2018-12-05T15:26:42.937Z,69.71
2018-12-05T15:27:42.964Z,69.81
2018-12-05T15:28:43.209Z,69.53
2018-12-05T15:29:42.925Z,69.62
2018-12-05T15:30:42.960Z,70.10
2018-12-05T15:31:43.005Z,69.71
2018-12-05T15:32:42.956Z,70.29
2018-12-05T15:33:42.967Z,70.29
2018-12-05T15:34:42.955Z,69.71
2018-12-05T15:35:42.949Z,70.38
2018-12-05T15:36:43.001Z,70.00
2018-12-05T15:37:42.996Z,70.19
2018-12-05T15:38:42.970Z,70.48
2018-12-05T15:39:43.029Z,70.19
2018-12-05T15:40:42.975Z,70.19
2018-12-05T15:41:43.021Z,70.29
2018-12-05T15:42:43.027Z,70.00
2018-12-05T15:43:43.109Z,70.38
2018-12-05T15:44:42.983Z,70.38
2018-12-05T15:45:43.037Z,70.57
2018-12-05T15:46:43.005Z,70.57
2018-12-05T15:47:42.996Z,70.38
2018-12-05T15:48:43.074Z,70.48
2018-12-05T15:49:43.012Z,70.19
2018-12-05T15:50:43.046Z,70.19
2018-12-05T15:51:43.188Z,70.00
2018-12-05T15:52:43.063Z,70.10
2018-12-05T15:53:43.076Z,70.19
2018-12-05T15:54:43.078Z,70.48
2018-12-05T15:55:43.158Z,70.19
2018-12-05T15:56:43.068Z,70.48
2018-12-05T15:57:43.060Z,70.10
2018-12-05T15:58:43.034Z,70.48
2018-12-05T15:59:43.078Z,70.38
2018-12-05T16:00:43.181Z,70.38
2018-12-05T16:01:43.096Z,70.38
2018-12-05T16:02:43.145Z,70.48
2018-12-05T16:03:43.590Z,70.95
2018-12-05T16:04:43.073Z,70.38
2018-12-05T16:05:43.366Z,71.20
2018-12-05T16:06:43.088Z,70.35
2018-12-05T16:07:43.382Z,70.82
2018-12-05T16:08:43.094Z,71.20
2018-12-05T16:09:43.084Z,70.54
2018-12-05T16:10:43.216Z,70.48
2018-12-05T16:11:43.189Z,71.48
2018-12-05T16:12:43.113Z,70.92
2018-12-05T16:13:43.098Z,71.30
2018-12-05T16:14:43.095Z,71.20
2018-12-05T16:15:43.118Z,71.30
2018-12-05T16:16:43.128Z,71.30
2018-12-05T16:17:43.145Z,70.73
2018-12-05T16:18:43.179Z,70.63
2018-12-05T16:19:43.119Z,70.73
2018-12-05T16:20:43.150Z,70.82
2018-12-05T16:21:43.172Z,71.01
2018-12-05T16:22:43.145Z,71.39
2018-12-05T16:23:43.239Z,71.30
2018-12-05T16:24:43.188Z,71.20
2018-12-05T16:25:43.203Z,71.11
2018-12-05T16:26:43.273Z,71.11
2018-12-05T16:27:43.241Z,71.30